Time;durP1;ratioP1;P1;durP2;ratioP2;P2;SDS_P1;SDS_P2;PMS_P1;PMS_P2;Temp;Humidity;BMP_temperature;BMP_pressure;BME280_temperature;BME280_humidity;BME280_pressure;Samples;Min_cycle;Max_cycle;Signal;HPM_P1;HPM_P2
2023/12/07 00:01:14;;;;;;;73.93;19.50;;;2.40;99.90;;;;;;5052820;28;20286;-59
2023/12/07 00:03:43;;;;;;;74.47;17.67;;;2.40;99.90;;;;;;5053409;28;20266;-59
2023/12/07 00:06:11;;;;;;;85.57;19.00;;;2.40;99.90;;;;;;5051950;28;20307;-59
2023/12/07 00:08:39;;;;;;;146.13;21.50;;;2.40;99.90;;;;;;5044720;28;20305;-58
2023/12/07 00:11:07;;;;;;;99.00;20.73;;;2.40;99.90;;;;;;5048905;28;20193;-59
2023/12/07 00:13:37;;;;;;;132.20;21.33;;;2.40;99.90;;;;;;5039169;28;20196;-60
2023/12/07 00:16:06;;;;;;;151.93;23.30;;;2.40;99.90;;;;;;5063240;28;20266;-59
2023/12/07 00:18:34;;;;;;;132.93;22.37;;;2.40;99.90;;;;;;5071781;28;20698;-59
2023/12/07 00:21:02;;;;;;;142.30;26.30;;;2.50;99.90;;;;;;5059747;27;20220;-59
2023/12/07 00:23:31;;;;;;;107.60;24.60;;;2.50;99.90;;;;;;5049592;28;20224;-60
2023/12/07 00:25:59;;;;;;;138.13;24.03;;;2.50;99.90;;;;;;5048198;28;20193;-59
2023/12/07 00:28:27;;;;;;;151.80;24.13;;;2.60;99.90;;;;;;5047117;28;20544;-59
2023/12/07 00:30:57;;;;;;;135.67;24.10;;;2.50;99.90;;;;;;5044846;28;20750;-59
2023/12/07 00:33:25;;;;;;;126.23;23.37;;;2.60;99.90;;;;;;5052462;28;20238;-59
2023/12/07 00:35:53;;;;;;;129.03;25.33;;;2.60;99.90;;;;;;5039311;28;20217;-59
2023/12/07 00:38:22;;;;;;;108.37;22.67;;;2.60;99.90;;;;;;5043462;28;20677;-59
2023/12/07 00:40:50;;;;;;;107.50;23.17;;;2.60;99.90;;;;;;5038106;28;20194;-57
2023/12/07 00:43:18;;;;;;;122.87;24.93;;;2.60;99.90;;;;;;5032118;28;20225;-59
2023/12/07 00:45:46;;;;;;;124.73;23.67;;;2.60;99.90;;;;;;5034498;28;20241;-59
2023/12/07 00:48:16;;;;;;;117.63;22.70;;;2.50;99.90;;;;;;5034723;28;20703;-59
2023/12/07 00:50:44;;;;;;;129.57;24.23;;;2.50;99.90;;;;;;5034827;28;20307;-59
2023/12/07 00:53:13;;;;;;;109.63;23.50;;;2.50;99.90;;;;;;5033032;28;20225;-59
2023/12/07 00:55:41;;;;;;;117.47;24.00;;;2.60;99.90;;;;;;5039054;28;20640;-59
2023/12/07 00:58:09;;;;;;;109.80;23.77;;;2.60;99.90;;;;;;5031960;28;20630;-59
2023/12/07 01:00:37;;;;;;;102.73;23.87;;;2.60;99.90;;;;;;5038982;28;20228;-59
2023/12/07 01:03:06;;;;;;;99.27;23.67;;;2.60;99.90;;;;;;5034461;28;20219;-59
2023/12/07 01:05:35;;;;;;;104.53;23.23;;;2.60;99.90;;;;;;5033326;28;20227;-59
2023/12/07 01:08:04;;;;;;;95.47;23.80;;;2.60;99.90;;;;;;5033918;28;20200;-58
2023/12/07 01:10:32;;;;;;;111.00;24.40;;;2.60;99.90;;;;;;5037278;28;20520;-58
2023/12/07 01:13:01;;;;;;;89.87;22.50;;;2.60;99.90;;;;;;5031962;28;20209;-58
2023/12/07 01:15:29;;;;;;;94.63;23.70;;;2.60;99.90;;;;;;5038923;28;20291;-58
2023/12/07 01:17:57;;;;;;;99.47;23.70;;;2.60;99.90;;;;;;5035944;28;20683;-58
2023/12/07 01:20:26;;;;;;;100.37;24.13;;;2.60;99.90;;;;;;5032032;28;20221;-58
2023/12/07 01:22:56;;;;;;;106.00;23.83;;;2.60;99.90;;;;;;5029429;28;20233;-58
2023/12/07 01:25:25;;;;;;;96.80;24.10;;;2.60;99.90;;;;;;5041324;28;20205;-58
2023/12/07 01:27:53;;;;;;;93.40;24.17;;;2.60;99.90;;;;;;5036562;28;20589;-58
2023/12/07 01:30:21;;;;;;;94.17;23.53;;;2.70;99.90;;;;;;5037843;28;20703;-58
2023/12/07 01:32:50;;;;;;;94.67;23.63;;;2.70;99.90;;;;;;5035849;28;20626;-58
2023/12/07 01:35:18;;;;;;;99.27;24.83;;;2.70;99.90;;;;;;5030885;28;20221;-58
2023/12/07 01:37:46;;;;;;;91.13;24.20;;;2.70;99.90;;;;;;5039077;28;20524;-58
2023/12/07 01:40:16;;;;;;;99.00;25.77;;;2.70;99.90;;;;;;5035939;28;20228;-58
2023/12/07 01:42:51;;;;;;;96.17;25.23;;;2.70;99.90;;;;;;5034424;28;20593;-58
2023/12/07 01:45:19;;;;;;;98.87;24.87;;;2.70;99.90;;;;;;5027564;28;20717;-59
2023/12/07 01:47:50;;;;;;;101.17;26.20;;;2.70;99.90;;;;;;5036423;28;20217;-59
2023/12/07 01:50:23;;;;;;;101.13;27.63;;;2.70;99.90;;;;;;5035354;28;20225;-59
2023/12/07 01:52:58;;;;;;;124.53;31.07;;;2.80;99.90;;;;;;5032861;28;20193;-58
2023/12/07 01:55:28;;;;;;;117.63;29.67;;;2.80;99.90;;;;;;5036626;28;20196;-58
2023/12/07 01:57:56;;;;;;;129.63;32.73;;;2.80;99.90;;;;;;5032304;28;20717;-59
2023/12/07 02:00:27;;;;;;;123.73;33.23;;;2.70;99.90;;;;;;5035251;28;20283;-58
2023/12/07 02:02:55;;;;;;;129.60;32.70;;;2.70;99.90;;;;;;5037191;28;20233;-59
2023/12/07 02:05:26;;;;;;;130.57;33.07;;;2.60;99.90;;;;;;5032480;28;20933;-59
2023/12/07 02:07:55;;;;;;;116.43;31.37;;;2.60;99.90;;;;;;5035688;28;20201;-58
2023/12/07 02:10:23;;;;;;;120.53;32.27;;;2.60;99.90;;;;;;5034263;28;20200;-58
2023/12/07 02:12:54;;;;;;;126.07;32.57;;;2.60;99.90;;;;;;5034100;28;20221;-59
2023/12/07 02:15:22;;;;;;;131.83;32.80;;;2.60;99.90;;;;;;5038038;28;20248;-58
2023/12/07 02:17:58;;;;;;;128.80;33.47;;;2.60;99.90;;;;;;5033844;28;20268;-59
2023/12/07 02:20:32;;;;;;;131.57;32.90;;;2.60;99.90;;;;;;5025467;28;20220;-58
2023/12/07 02:23:04;;;;;;;124.47;32.57;;;2.60;99.90;;;;;;5034657;28;20848;-58
2023/12/07 02:25:38;;;;;;;114.93;31.40;;;2.60;99.90;;;;;;5034933;28;20527;-59
2023/12/07 02:28:08;;;;;;;121.10;32.10;;;2.60;99.90;;;;;;5033739;28;20213;-58
2023/12/07 02:30:36;;;;;;;123.83;30.73;;;2.60;99.90;;;;;;5029104;28;20316;-59
2023/12/07 02:33:04;;;;;;;124.33;30.93;;;2.70;99.90;;;;;;5034022;28;20236;-59
2023/12/07 02:35:35;;;;;;;96.37;26.80;;;2.70;99.90;;;;;;5035261;28;20213;-59
2023/12/07 02:38:04;;;;;;;86.10;24.73;;;2.70;99.90;;;;;;5033618;28;20198;-59
2023/12/07 02:40:32;;;;;;;72.00;22.30;;;2.70;99.90;;;;;;5033627;28;20190;-59
2023/12/07 02:43:02;;;;;;;79.80;22.10;;;2.70;99.90;;;;;;5034659;28;20217;-58
2023/12/07 02:45:33;;;;;;;75.30;22.33;;;2.70;99.90;;;;;;5033047;28;20229;-59
2023/12/07 02:48:02;;;;;;;66.97;21.73;;;2.70;99.90;;;;;;5034500;28;20228;-57
2023/12/07 02:50:30;;;;;;;65.83;21.07;;;2.70;99.90;;;;;;5035304;28;20223;-58
2023/12/07 02:52:58;;;;;;;69.83;22.53;;;2.60;99.90;;;;;;5032385;28;20198;-59
2023/12/07 02:55:26;;;;;;;63.00;20.67;;;2.60;99.90;;;;;;5036592;28;20276;-59
2023/12/07 02:57:55;;;;;;;71.47;22.40;;;2.70;99.90;;;;;;5024837;28;20234;-59
2023/12/07 03:00:23;;;;;;;65.23;21.10;;;2.70;99.90;;;;;;5021245;28;20221;-59
2023/12/07 03:02:53;;;;;;;63.60;21.17;;;2.70;99.90;;;;;;5024102;28;20706;-59
2023/12/07 03:05:22;;;;;;;63.03;21.23;;;2.70;99.90;;;;;;5030162;28;20224;-58
2023/12/07 03:07:51;;;;;;;69.63;22.33;;;2.70;99.90;;;;;;5033006;28;20208;-58
2023/12/07 03:10:19;;;;;;;65.43;20.47;;;2.80;99.90;;;;;;5034842;28;20194;-58
2023/12/07 03:12:48;;;;;;;71.63;22.43;;;2.80;99.90;;;;;;5029330;28;20311;-58
2023/12/07 03:15:16;;;;;;;65.93;21.60;;;2.80;99.90;;;;;;5031506;28;20225;-58
2023/12/07 03:17:44;;;;;;;61.07;20.90;;;2.80;99.90;;;;;;5033165;28;20585;-58
2023/12/07 03:20:14;;;;;;;63.93;20.83;;;2.80;99.90;;;;;;5035666;28;20553;-58
2023/12/07 03:22:43;;;;;;;58.47;21.83;;;2.80;99.90;;;;;;5035741;28;20224;-58
2023/12/07 03:25:12;;;;;;;60.40;20.90;;;2.80;99.90;;;;;;5031991;28;20302;-58
2023/12/07 03:27:40;;;;;;;56.57;20.50;;;2.80;99.90;;;;;;5046497;28;20221;-58
2023/12/07 03:30:09;;;;;;;64.80;20.17;;;2.80;99.90;;;;;;5032196;28;20224;-58
2023/12/07 03:32:38;;;;;;;55.23;20.00;;;2.80;99.90;;;;;;5033676;28;20217;-58
2023/12/07 03:35:07;;;;;;;54.67;19.77;;;2.90;99.90;;;;;;5029052;28;20260;-59
2023/12/07 03:37:37;;;;;;;52.63;20.00;;;2.90;99.90;;;;;;5034124;28;20647;-58
2023/12/07 03:40:06;;;;;;;53.97;19.67;;;2.90;99.90;;;;;;5034664;28;20221;-58
2023/12/07 03:42:34;;;;;;;50.60;19.57;;;2.90;99.90;;;;;;5032354;28;20643;-59
2023/12/07 03:45:23;;;;;;;49.60;19.23;;;3.00;99.90;;;;;;5034576;28;20240;-58
2023/12/07 03:47:51;;;;;;;43.27;18.23;;;3.00;99.90;;;;;;5032647;28;20276;-59
2023/12/07 03:50:19;;;;;;;49.77;19.27;;;3.00;99.90;;;;;;5027799;28;20224;-58
2023/12/07 03:52:49;;;;;;;43.60;18.73;;;3.00;99.90;;;;;;5035553;28;20185;-59
2023/12/07 03:55:17;;;;;;;56.60;18.73;;;3.00;99.90;;;;;;5031599;28;20225;-58
2023/12/07 03:57:46;;;;;;;39.53;17.50;;;3.00;99.90;;;;;;5032286;28;20220;-58
2023/12/07 04:00:17;;;;;;;47.43;19.23;;;3.00;99.90;;;;;;5034212;28;20634;-58
2023/12/07 04:02:45;;;;;;;46.60;18.87;;;3.00;99.90;;;;;;5031384;28;20231;-58
2023/12/07 04:05:14;;;;;;;42.00;18.20;;;3.00;99.90;;;;;;5030050;28;20224;-59
2023/12/07 04:07:42;;;;;;;42.60;18.07;;;3.00;99.90;;;;;;5044191;28;20196;-58
2023/12/07 04:10:12;;;;;;;42.37;18.17;;;3.10;99.90;;;;;;5035764;28;20221;-59
2023/12/07 04:12:41;;;;;;;40.30;18.27;;;3.10;99.90;;;;;;5035381;28;20263;-59
2023/12/07 04:15:09;;;;;;;44.77;19.63;;;3.10;99.90;;;;;;5040148;28;20224;-59
2023/12/07 04:17:38;;;;;;;42.37;17.73;;;3.00;99.90;;;;;;5032441;28;20252;-59
2023/12/07 04:20:09;;;;;;;48.00;18.73;;;3.10;99.90;;;;;;5034524;28;20209;-58
2023/12/07 04:22:37;;;;;;;41.27;17.77;;;3.00;99.90;;;;;;5035957;28;20236;-58
2023/12/07 04:25:06;;;;;;;38.93;18.43;;;3.00;99.90;;;;;;5040325;28;20311;-58
2023/12/07 04:27:36;;;;;;;41.77;17.70;;;3.10;99.90;;;;;;5034160;28;20264;-58
2023/12/07 04:30:05;;;;;;;38.97;18.13;;;3.10;99.90;;;;;;5036856;28;20217;-58
2023/12/07 04:32:33;;;;;;;42.07;18.33;;;3.10;99.90;;;;;;5036200;28;20225;-59
2023/12/07 04:35:02;;;;;;;37.30;18.40;;;3.10;99.90;;;;;;5032597;28;20197;-58
2023/12/07 04:37:30;;;;;;;37.50;17.50;;;3.10;99.90;;;;;;5034175;28;20198;-58
2023/12/07 04:39:58;;;;;;;35.40;17.80;;;3.00;99.90;;;;;;5037291;28;20221;-58
2023/12/07 04:42:27;;;;;;;35.87;16.97;;;3.10;99.90;;;;;;5037229;28;20758;-58
2023/12/07 04:44:56;;;;;;;34.90;16.70;;;3.10;99.90;;;;;;5035807;28;20274;-59
2023/12/07 04:47:25;;;;;;;35.27;17.43;;;3.10;99.90;;;;;;5030542;28;20248;-59
2023/12/07 04:49:56;;;;;;;32.93;16.33;;;3.00;99.90;;;;;;5036606;28;20206;-59
2023/12/07 04:52:24;;;;;;;41.73;15.73;;;3.00;99.90;;;;;;5031192;28;20201;-59
2023/12/07 04:54:53;;;;;;;30.70;16.67;;;3.10;99.90;;;;;;5038961;28;20232;-59
2023/12/07 04:57:23;;;;;;;35.27;16.83;;;3.00;99.90;;;;;;5034463;28;20217;-59
2023/12/07 04:59:51;;;;;;;30.47;15.77;;;3.00;99.90;;;;;;5039588;28;20227;-59
2023/12/07 05:02:21;;;;;;;31.33;16.77;;;3.00;99.90;;;;;;5034208;28;20222;-59
2023/12/07 05:04:50;;;;;;;31.13;15.70;;;3.10;99.90;;;;;;5030237;28;20190;-54
2023/12/07 05:07:18;;;;;;;31.43;16.20;;;3.10;99.90;;;;;;5034731;28;20173;-59
2023/12/07 05:09:46;;;;;;;35.23;15.77;;;3.10;99.90;;;;;;5037256;28;20221;-59
2023/12/07 05:12:14;;;;;;;30.13;16.03;;;3.10;99.90;;;;;;5032859;28;20220;-58
2023/12/07 05:14:43;;;;;;;31.23;16.17;;;3.10;99.90;;;;;;5034638;28;20236;-59
2023/12/07 05:17:12;;;;;;;37.33;17.50;;;3.10;99.90;;;;;;5030693;28;20591;-59
2023/12/07 05:19:41;;;;;;;31.20;16.20;;;3.10;99.90;;;;;;5033273;28;20185;-59
2023/12/07 05:22:10;;;;;;;34.37;16.33;;;3.00;99.90;;;;;;5033745;28;20690;-59
2023/12/07 05:24:38;;;;;;;37.10;17.60;;;2.90;99.90;;;;;;5036696;28;20611;-59
2023/12/07 05:27:06;;;;;;;42.67;16.00;;;2.90;99.90;;;;;;5039490;28;20225;-59
2023/12/07 05:29:34;;;;;;;30.77;15.40;;;2.90;99.90;;;;;;5036134;28;20702;-59
2023/12/07 05:32:04;;;;;;;34.47;16.40;;;2.90;99.90;;;;;;5028811;28;20232;-59
2023/12/07 05:34:33;;;;;;;31.93;15.97;;;2.80;99.90;;;;;;5035642;28;20216;-59
2023/12/07 05:37:04;;;;;;;35.20;15.83;;;2.80;99.90;;;;;;5037919;28;20223;-59
2023/12/07 05:39:32;;;;;;;31.20;15.73;;;2.80;99.90;;;;;;5030611;28;20222;-59
2023/12/07 05:42:00;;;;;;;34.53;15.83;;;2.80;99.90;;;;;;5035454;28;20221;-59
2023/12/07 05:44:29;;;;;;;29.07;15.00;;;2.80;99.90;;;;;;5031408;28;20222;-59
2023/12/07 05:46:58;;;;;;;31.93;16.17;;;2.80;99.90;;;;;;5036432;28;20217;-59
2023/12/07 05:49:26;;;;;;;34.47;15.33;;;2.90;99.90;;;;;;5034765;28;20198;-59
2023/12/07 05:51:55;;;;;;;30.33;15.63;;;2.90;99.90;;;;;;5033454;28;20317;-59
2023/12/07 05:54:25;;;;;;;28.67;15.00;;;2.80;99.90;;;;;;5034883;28;20377;-59
2023/12/07 05:56:53;;;;;;;31.87;15.07;;;2.80;99.90;;;;;;5037559;28;20311;-59
2023/12/07 05:59:22;;;;;;;33.77;16.47;;;2.80;99.90;;;;;;5028307;28;20220;-59
2023/12/07 06:01:52;;;;;;;26.97;15.10;;;2.80;99.90;;;;;;5030639;28;20193;-57
2023/12/07 06:04:21;;;;;;;34.13;15.90;;;2.80;99.90;;;;;;5028472;28;21407;-59
2023/12/07 06:06:49;;;;;;;29.00;15.40;;;2.80;99.90;;;;;;5033261;28;20226;-60
2023/12/07 06:09:17;;;;;;;33.03;15.50;;;2.80;99.90;;;;;;5037341;28;20232;-59
2023/12/07 06:11:47;;;;;;;29.77;15.43;;;2.80;99.90;;;;;;5034860;28;20232;-59
2023/12/07 06:14:15;;;;;;;30.00;15.87;;;2.70;99.90;;;;;;5032722;28;21136;-60
2023/12/07 06:16:43;;;;;;;33.20;15.67;;;2.70;99.90;;;;;;5034094;28;20203;-59
2023/12/07 06:19:11;;;;;;;30.43;14.57;;;2.70;99.90;;;;;;5031800;28;20213;-59
2023/12/07 06:21:40;;;;;;;28.47;14.40;;;2.70;99.90;;;;;;5032681;28;20696;-59
2023/12/07 06:24:08;;;;;;;38.83;15.60;;;2.70;99.90;;;;;;5038743;28;20222;-59
2023/12/07 06:26:36;;;;;;;36.47;15.30;;;2.70;99.90;;;;;;5036179;28;20229;-59
2023/12/07 06:29:07;;;;;;;29.83;14.80;;;2.70;99.90;;;;;;5033840;28;20305;-59
2023/12/07 06:31:35;;;;;;;29.83;14.53;;;2.70;99.90;;;;;;5028313;28;20205;-59
2023/12/07 06:34:03;;;;;;;31.87;15.93;;;2.70;99.90;;;;;;5031988;28;20261;-59
2023/12/07 06:36:33;;;;;;;30.93;14.53;;;2.60;99.90;;;;;;5034131;28;20598;-59
2023/12/07 06:39:01;;;;;;;38.20;16.30;;;2.70;99.90;;;;;;5026749;28;20696;-59
2023/12/07 06:41:29;;;;;;;32.67;15.93;;;2.70;99.90;;;;;;5030667;28;20240;-59
2023/12/07 06:43:57;;;;;;;34.47;16.43;;;2.70;99.90;;;;;;5030556;28;20198;-59
2023/12/07 06:46:28;;;;;;;34.40;15.50;;;2.70;99.90;;;;;;5029723;28;20214;-59
2023/12/07 06:48:57;;;;;;;28.77;16.07;;;2.70;99.90;;;;;;5031740;28;20759;-59
2023/12/07 06:51:25;;;;;;;30.73;14.67;;;2.70;99.90;;;;;;5030146;28;20312;-59
2023/12/07 06:53:53;;;;;;;34.07;15.43;;;2.70;99.90;;;;;;5028844;28;20312;-59
2023/12/07 06:56:22;;;;;;;31.43;15.07;;;2.70;99.90;;;;;;5026600;28;20221;-59
2023/12/07 06:58:50;;;;;;;30.37;15.57;;;2.70;99.90;;;;;;5030957;28;20212;-57
2023/12/07 07:01:18;;;;;;;38.63;15.77;;;2.70;99.90;;;;;;5037871;28;20311;-59
2023/12/07 07:03:48;;;;;;;30.53;15.00;;;2.70;99.90;;;;;;5031073;28;21302;-59
2023/12/07 07:06:16;;;;;;;29.50;14.97;;;2.70;99.90;;;;;;5029848;28;20232;-59
2023/12/07 07:08:46;;;;;;;31.00;15.90;;;2.70;99.90;;;;;;5034656;28;20214;-59
2023/12/07 07:11:14;;;;;;;36.80;15.43;;;2.70;99.90;;;;;;5032937;28;20244;-59
2023/12/07 07:13:43;;;;;;;31.67;15.00;;;2.70;99.90;;;;;;5028927;28;20287;-58
2023/12/07 07:16:12;;;;;;;30.30;15.50;;;2.70;99.90;;;;;;5032832;28;20696;-59
2023/12/07 07:18:40;;;;;;;32.10;15.30;;;2.70;99.90;;;;;;5026779;28;20228;-59
2023/12/07 07:21:10;;;;;;;34.93;15.37;;;2.70;99.90;;;;;;5032066;28;20221;-59
2023/12/07 07:23:38;;;;;;;33.53;15.03;;;2.70;99.90;;;;;;5022972;28;20217;-59
2023/12/07 07:26:08;;;;;;;35.97;15.70;;;2.60;99.90;;;;;;5037702;28;20280;-58
2023/12/07 07:28:36;;;;;;;30.83;15.50;;;2.70;99.90;;;;;;5032254;28;20259;-59
2023/12/07 07:31:04;;;;;;;30.97;15.67;;;2.70;99.90;;;;;;5025786;28;20239;-59
2023/12/07 07:33:33;;;;;;;28.20;15.60;;;2.70;99.90;;;;;;5033673;28;20223;-59
2023/12/07 07:36:04;;;;;;;31.37;15.63;;;2.60;99.90;;;;;;5033965;28;20217;-59
2023/12/07 07:38:34;;;;;;;32.67;15.73;;;2.60;99.90;;;;;;5030920;28;20220;-59
2023/12/07 07:41:02;;;;;;;31.97;16.17;;;2.60;99.90;;;;;;5031204;28;20198;-59
2023/12/07 07:43:30;;;;;;;32.83;16.27;;;2.50;99.90;;;;;;5034482;28;20211;-59
2023/12/07 07:45:59;;;;;;;32.60;15.00;;;2.50;99.90;;;;;;5040924;28;20221;-59
2023/12/07 07:48:27;;;;;;;33.07;17.10;;;2.50;99.90;;;;;;5038812;28;20218;-59
2023/12/07 07:50:57;;;;;;;33.70;16.70;;;2.40;99.90;;;;;;5041800;28;20221;-59
2023/12/07 07:53:26;;;;;;;35.03;16.97;;;2.40;99.90;;;;;;5038755;28;20680;-59
2023/12/07 07:55:56;;;;;;;30.80;16.30;;;2.40;99.90;;;;;;5041653;28;20197;-59
2023/12/07 07:58:25;;;;;;;33.13;15.93;;;2.40;99.90;;;;;;5038560;28;20188;-59
2023/12/07 08:00:53;;;;;;;33.87;16.17;;;2.40;99.90;;;;;;5038521;28;20212;-59
2023/12/07 08:03:21;;;;;;;29.37;14.40;;;2.40;99.90;;;;;;5034076;28;20714;-59
2023/12/07 08:05:49;;;;;;;32.20;16.30;;;2.50;99.90;;;;;;5039950;28;20550;-59
2023/12/07 08:08:18;;;;;;;32.00;16.03;;;2.50;99.90;;;;;;5039897;28;20231;-59
2023/12/07 08:10:46;;;;;;;32.57;15.87;;;2.50;99.90;;;;;;5043922;28;20251;-58
2023/12/07 08:13:24;;;;;;;29.53;16.07;;;2.50;99.90;;;;;;5035291;28;20218;-59
2023/12/07 08:15:53;;;;;;;32.70;16.87;;;2.60;99.90;;;;;;5056227;28;20220;-59
2023/12/07 08:18:25;;;;;;;32.23;16.37;;;2.60;99.90;;;;;;5054863;28;20224;-59
2023/12/07 08:20:54;;;;;;;29.23;16.30;;;2.60;99.90;;;;;;5056465;28;20572;-59
2023/12/07 08:23:23;;;;;;;34.60;16.70;;;2.70;99.90;;;;;;5054346;28;20220;-59
2023/12/07 08:25:51;;;;;;;32.30;16.50;;;2.70;99.90;;;;;;5060232;28;20205;-60
2023/12/07 08:28:19;;;;;;;30.17;15.43;;;2.70;99.90;;;;;;5056925;28;20207;-59
2023/12/07 08:30:49;;;;;;;37.50;16.80;;;2.70;99.90;;;;;;5053975;28;20225;-59
2023/12/07 08:33:17;;;;;;;33.77;16.00;;;2.70;99.90;;;;;;5051846;28;20232;-60
2023/12/07 08:35:46;;;;;;;31.07;16.03;;;2.70;99.90;;;;;;5059113;28;20600;-59
2023/12/07 08:38:14;;;;;;;34.63;16.37;;;2.70;99.90;;;;;;5060602;28;20224;-59
2023/12/07 08:40:42;;;;;;;34.57;15.93;;;2.70;99.90;;;;;;5060284;28;20634;-59
2023/12/07 08:43:11;;;;;;;31.23;15.50;;;2.70;99.90;;;;;;5062553;28;20610;-59
2023/12/07 08:45:40;;;;;;;32.23;16.33;;;2.70;99.90;;;;;;5056691;28;20343;-59
2023/12/07 08:48:09;;;;;;;31.07;16.60;;;2.80;99.90;;;;;;5063879;28;20709;-59
2023/12/07 08:50:38;;;;;;;33.87;15.23;;;2.80;99.90;;;;;;5055107;28;20221;-59
2023/12/07 08:53:06;;;;;;;40.07;15.07;;;2.90;99.90;;;;;;5056798;28;20193;-59
2023/12/07 08:55:34;;;;;;;37.97;15.83;;;2.90;99.90;;;;;;5058535;28;20227;-59
2023/12/07 08:58:04;;;;;;;31.17;15.00;;;2.90;99.90;;;;;;5058986;28;20213;-59
2023/12/07 09:00:32;;;;;;;31.47;15.03;;;2.90;99.90;;;;;;5054267;28;20216;-59
2023/12/07 09:03:02;;;;;;;27.10;14.93;;;3.00;99.90;;;;;;5050430;28;20270;-59
2023/12/07 09:05:32;;;;;;;30.13;15.07;;;3.10;99.90;;;;;;5054492;28;20228;-59
2023/12/07 09:08:00;;;;;;;30.00;14.37;;;3.20;99.90;;;;;;5051896;28;20227;-59
2023/12/07 09:10:29;;;;;;;27.70;14.67;;;3.20;99.90;;;;;;5055582;28;20195;-59
2023/12/07 09:12:57;;;;;;;31.87;15.43;;;3.20;99.90;;;;;;5054699;28;20215;-58
2023/12/07 09:15:25;;;;;;;29.03;14.97;;;3.30;99.90;;;;;;5055555;28;20298;-59
2023/12/07 09:17:53;;;;;;;30.73;15.07;;;3.30;99.90;;;;;;5052764;28;20248;-59
2023/12/07 09:20:22;;;;;;;24.77;13.67;;;3.30;99.90;;;;;;5059958;28;20220;-59
2023/12/07 09:22:51;;;;;;;29.33;14.63;;;3.30;99.90;;;;;;5055078;28;20234;-56
2023/12/07 09:25:21;;;;;;;28.07;14.43;;;3.30;99.90;;;;;;5059805;28;20257;-59
2023/12/07 09:27:51;;;;;;;26.57;14.50;;;3.40;99.90;;;;;;5056990;28;20220;-60
2023/12/07 09:30:19;;;;;;;26.23;14.30;;;3.40;99.90;;;;;;5057492;28;20220;-59
2023/12/07 09:32:47;;;;;;;27.07;14.30;;;3.50;99.90;;;;;;5061626;28;20350;-59
2023/12/07 09:35:18;;;;;;;28.63;15.13;;;3.60;99.90;;;;;;5049455;28;20286;-59
2023/12/07 09:37:50;;;;;;;26.80;13.73;;;3.70;99.90;;;;;;5049231;28;20188;-59
2023/12/07 09:40:20;;;;;;;27.97;14.50;;;3.80;99.90;;;;;;5055439;28;20224;-59
2023/12/07 09:42:50;;;;;;;22.00;12.97;;;3.90;99.90;;;;;;5055146;28;20699;-59
2023/12/07 09:45:21;;;;;;;22.47;13.40;;;4.00;99.90;;;;;;5058200;28;20220;-60
2023/12/07 09:47:52;;;;;;;26.33;12.47;;;4.10;99.90;;;;;;5050383;28;20228;-59
2023/12/07 09:50:23;;;;;;;28.47;13.53;;;4.20;99.90;;;;;;5050110;28;20289;-59
2023/12/07 09:52:56;;;;;;;23.63;12.17;;;4.30;99.90;;;;;;5053832;28;20276;-59
2023/12/07 09:55:36;;;;;;;31.27;13.03;;;4.40;99.90;;;;;;5053374;28;20555;-60
2023/12/07 09:58:06;;;;;;;24.97;12.73;;;4.50;99.90;;;;;;5056044;28;20220;-60
2023/12/07 10:00:36;;;;;;;22.70;12.87;;;4.50;99.90;;;;;;5058161;28;20258;-59
2023/12/07 10:03:09;;;;;;;26.73;12.77;;;4.40;99.90;;;;;;5055032;28;20242;-60
2023/12/07 10:05:54;;;;;;;19.20;12.30;;;4.30;99.90;;;;;;5052911;28;20221;-59
2023/12/07 10:08:30;;;;;;;25.73;12.50;;;4.30;99.90;;;;;;5056333;28;20354;-59
2023/12/07 10:11:08;;;;;;;25.07;12.70;;;4.40;99.90;;;;;;5058448;28;20218;-59
2023/12/07 10:13:38;;;;;;;20.63;12.50;;;4.50;99.90;;;;;;5051174;28;20232;-59
2023/12/07 10:16:11;;;;;;;21.23;12.13;;;4.60;99.90;;;;;;5051717;28;20217;-59
2023/12/07 10:18:43;;;;;;;21.27;13.07;;;4.60;99.90;;;;;;5052218;28;20209;-60
2023/12/07 10:21:13;;;;;;;21.47;11.67;;;4.70;99.90;;;;;;5057129;28;20216;-60
2023/12/07 10:23:47;;;;;;;20.00;11.13;;;4.80;99.90;;;;;;5057556;28;20220;-60
2023/12/07 10:26:19;;;;;;;24.33;12.00;;;4.90;99.90;;;;;;5063051;28;20219;-60
2023/12/07 10:28:53;;;;;;;20.07;11.33;;;4.90;99.90;;;;;;5052210;28;20290;-59
2023/12/07 10:31:23;;;;;;;18.20;11.07;;;4.90;99.90;;;;;;5050617;28;20221;-60
2023/12/07 10:33:51;;;;;;;24.93;11.43;;;4.90;99.90;;;;;;5040158;28;20227;-60
2023/12/07 10:36:20;;;;;;;17.80;11.53;;;4.90;99.90;;;;;;5037140;28;20271;-60
2023/12/07 10:38:51;;;;;;;21.37;12.23;;;4.80;99.90;;;;;;5040387;28;20647;-59
2023/12/07 10:41:21;;;;;;;20.60;12.43;;;4.80;99.90;;;;;;5040244;28;20228;-59
2023/12/07 10:43:53;;;;;;;18.73;11.63;;;4.80;99.90;;;;;;5037551;28;20215;-50
2023/12/07 10:46:22;;;;;;;21.90;11.53;;;4.80;99.90;;;;;;5032266;28;20221;-60
2023/12/07 10:48:56;;;;;;;23.77;12.10;;;4.90;99.90;;;;;;5031892;28;20225;-59
2023/12/07 10:51:32;;;;;;;21.70;11.30;;;5.00;99.90;;;;;;5037999;28;20592;-59
2023/12/07 10:54:05;;;;;;;17.80;10.63;;;5.00;99.90;;;;;;5033386;28;20228;-60
2023/12/07 10:56:41;;;;;;;18.87;11.53;;;5.20;99.90;;;;;;5033409;28;20316;-60
2023/12/07 10:59:11;;;;;;;23.27;11.50;;;5.20;99.90;;;;;;5035718;28;20223;-59
2023/12/07 11:01:49;;;;;;;18.07;11.23;;;5.30;99.90;;;;;;5041747;28;20200;-59
2023/12/07 11:04:18;;;;;;;17.73;11.23;;;5.40;99.90;;;;;;5025497;28;20286;-60
2023/12/07 11:06:51;;;;;;;18.27;11.40;;;5.40;99.90;;;;;;5037398;28;20251;-59
2023/12/07 11:09:26;;;;;;;21.93;11.50;;;5.40;99.90;;;;;;5033261;28;20771;-59
2023/12/07 11:12:02;;;;;;;21.47;11.23;;;5.50;99.90;;;;;;5045703;28;20273;-59
2023/12/07 11:14:30;;;;;;;17.83;10.13;;;5.50;99.90;;;;;;5055197;28;20224;-60
2023/12/07 11:16:59;;;;;;;15.97;10.60;;;5.60;99.90;;;;;;5057970;28;20193;-60
2023/12/07 11:19:47;;;;;;;20.97;11.17;;;5.60;99.90;;;;;;5051412;28;20288;-59
2023/12/07 11:22:19;;;;;;;20.63;10.77;;;5.70;99.90;;;;;;5049535;28;20569;-59
2023/12/07 11:25:00;;;;;;;13.40;9.60;;;5.70;99.90;;;;;;5052758;28;20231;-59
2023/12/07 11:27:31;;;;;;;13.70;9.50;;;5.80;99.90;;;;;;5041920;28;20220;-59
2023/12/07 11:30:01;;;;;;;16.47;9.67;;;5.70;99.90;;;;;;5035132;28;20232;-59
2023/12/07 11:32:30;;;;;;;18.10;9.57;;;5.70;99.90;;;;;;5033801;28;20291;-59
2023/12/07 11:35:04;;;;;;;15.23;9.17;;;5.60;99.90;;;;;;5037323;28;20188;-58
2023/12/07 11:38:01;;;;;;;15.57;9.57;;;5.60;99.90;;;;;;5038214;28;20189;-59
2023/12/07 11:40:32;;;;;;;13.80;9.10;;;5.70;99.90;;;;;;5035863;28;20217;-59
2023/12/07 11:43:04;;;;;;;16.27;9.73;;;5.60;99.90;;;;;;5030056;28;20225;-59
2023/12/07 11:45:41;;;;;;;14.20;8.40;;;5.60;99.90;;;;;;5032736;28;20560;-59
2023/12/07 11:48:13;;;;;;;13.67;8.43;;;5.60;99.90;;;;;;5022373;28;20261;-58
2023/12/07 11:50:56;;;;;;;15.70;8.10;;;5.70;99.90;;;;;;5035388;28;20224;-59
2023/12/07 11:53:26;;;;;;;16.33;8.67;;;5.80;99.90;;;;;;5031962;28;20235;-59
2023/12/07 11:55:55;;;;;;;12.63;8.13;;;5.70;99.90;;;;;;5034733;28;20201;-59
2023/12/07 11:58:23;;;;;;;12.50;8.07;;;5.70;99.90;;;;;;5029896;28;20655;-59
2023/12/07 12:00:53;;;;;;;9.77;7.70;;;5.80;99.90;;;;;;5026510;28;22520;-59
2023/12/07 12:03:21;;;;;;;13.33;7.90;;;5.70;99.90;;;;;;5034044;28;20222;-58
2023/12/07 12:05:49;;;;;;;13.20;7.47;;;5.70;99.90;;;;;;5019240;28;20220;-59
2023/12/07 12:08:18;;;;;;;10.83;7.30;;;5.70;99.90;;;;;;5024472;28;20240;-59
2023/12/07 12:10:49;;;;;;;9.37;6.77;;;5.70;99.90;;;;;;5029544;28;20695;-59
2023/12/07 12:13:19;;;;;;;12.03;7.07;;;5.80;99.90;;;;;;5047251;28;20274;-59
2023/12/07 12:15:48;;;;;;;12.83;7.27;;;5.70;98.10;;;;;;5048267;28;20217;-59
2023/12/07 12:18:17;;;;;;;11.70;7.63;;;5.70;99.90;;;;;;5047644;28;20223;-59
2023/12/07 12:20:46;;;;;;;11.30;6.93;;;5.70;96.20;;;;;;5052718;28;20217;-61
2023/12/07 12:23:14;;;;;;;10.30;7.67;;;5.60;99.90;;;;;;5045824;28;20311;-59
2023/12/07 12:25:43;;;;;;;9.67;6.93;;;5.60;96.20;;;;;;5044315;28;20250;-59
2023/12/07 12:28:11;;;;;;;9.80;7.00;;;5.60;97.60;;;;;;5046426;28;20221;-59
2023/12/07 12:30:42;;;;;;;13.70;7.03;;;5.70;95.40;;;;;;5052920;28;20233;-59
2023/12/07 12:33:10;;;;;;;13.03;6.90;;;5.80;97.80;;;;;;5052007;28;20212;-59
2023/12/07 12:35:38;;;;;;;14.43;7.00;;;5.80;97.70;;;;;;5046515;28;20282;-59
2023/12/07 12:38:11;;;;;;;14.33;7.43;;;5.80;95.60;;;;;;5048711;28;20601;-60
2023/12/07 12:40:54;;;;;;;15.53;6.80;;;5.80;99.90;;;;;;5043273;28;20662;-59
2023/12/07 12:43:24;;;;;;;14.80;7.40;;;5.90;99.90;;;;;;5050598;28;20188;-59
2023/12/07 12:45:54;;;;;;;12.83;7.13;;;5.90;99.90;;;;;;5051302;28;20216;-59
2023/12/07 12:48:33;;;;;;;9.37;6.77;;;5.80;98.70;;;;;;5049549;28;20366;-59